Espaço - Ciências - Fenômenos Naturais
Meteógrafos Informações Meteorológicas em tempo real

Aeroporto de Congonhas

Histórico do Tempo
Temperatura atual: 21 graus 69 F    Umidade relativa: 49 %
Velocidade do vento: 06 nós 10 Km/h    Direção: 060 graus ENE
Ajuste do altímetro ..: 1021 HPA
Visibilidade: Ótima    Tempo presente: Céu Limpo

Observação

Data Hora BRTTempo°CUmidadePressãoVentoVisib.
22/09 - 02:55   Céu Limpo 21° 49% 1021 Este-nordeste/10 km/h CAVO
22/09 - 01:55   Céu Limpo 22° 46% 1021 Leste/7 km/h CAVO
22/09 - 00:55   Céu Limpo 21° 52% 1021 Leste/5 km/h CAVO
21/09 - 23:55   Céu Limpo 21° 56% 1022 /1 km/h OK
21/09 - 22:55   Quase sem nuvens 21° 60% 1022 Leste/3 km/h 8000
21/09 - 21:56   Quase sem nuvens 20° 68% 1022 Este-sudeste/3 km/h 8000
21/09 - 20:55   Quase sem nuvens 21° 73% 1022 Sul-sudeste/5 km/h 8000
21/09 - 19:56   Quase sem nuvens 22° 68% 1021 Sul-sudeste/10 km/h 8000
21/09 - 18:55   Quase sem nuvens 24° 57% 1021 Sul-sudeste/14 km/h 8000
21/09 - 17:55   Quase sem nuvens 24° 57% 1021 Sul-sudeste/14 km/h 8000
21/09 - 16:55   Céu Limpo 27° 34% 1021 Sul-sudeste/18 km/h OK
21/09 - 15:55   Céu Limpo 29° 26% 1021 Sudeste/9 km/h OK
21/09 - 14:55   Céu Limpo 29° 26% 1021 Sudeste/9 km/h OK
21/09 - 13:55   Não Disponível ND° ND% ND Leste/3 km/h OK
21/09 - 12:56   Céu Limpo 26° 39% 1024 /9 km/h OK
21/09 - 11:55   Céu Limpo 25° 47% 1025 /3 km/h OK
21/09 - 10:55   Céu Limpo 23° 53% 1025 /5 km/h OK
21/09 - 09:55   Quase sem nuvens 21° 64% 1026 /3 km/h 8000
21/09 - 08:55   Quase sem nuvens 19° 77% 1025 /3 km/h 7000
21/09 - 07:56   Névoa úmida 17° 88% 1025 Sul-sudeste/7 km/h 5000
21/09 - 06:55   Névoa úmida 15° 87% 1024 Sul-sudeste/7 km/h 4500
21/09 - 05:55   Névoa úmida 15° 87% 1023 Sul-sudeste/7 km/h 4900
21/09 - 04:56   Névoa úmida 16° 87% 1023 Sul-sudeste/5 km/h 5000
21/09 - 03:55   Não Disponível 15° 87% 1022 Sul-sudeste/5 km/h 6000


Apolo11.com - Todos os direitos reservados - 2000 - 2017
Política de Privacidade   |     Termo de Uso e Licenciamento   |  -   Entre em Contato

"É necessário sempre esperar quando se está desesperado e duvidar enquando se espera" - Flaubert